CST,Max TemperatureF,Mean TemperatureF,Min TemperatureF,Max Dew PointF,MeanDew PointF,Min DewpointF,Max Humidity, Mean Humidity, Min Humidity, Max Sea Level PressureIn, Mean Sea Level PressureIn, Min Sea Level PressureIn, Max VisibilityMiles, Mean VisibilityMiles, Min VisibilityMiles, Max Wind SpeedMPH, Mean Wind SpeedMPH, Max Gust SpeedMPH,PrecipitationIn, CloudCover, Events, WindDirDegrees
2012-11-1,60,46,31,35,30,23,76,58,40,30.01,29.95,29.88,10,10,9,17,6,22,0.00,3,,317
2012-11-2,48,40,32,31,29,26,75,63,50,30.15,30.10,30.02,10,10,10,10,6,16,0.00,0,,64
2012-11-3,51,41,31,35,31,28,89,70,50,30.25,30.20,30.13,10,10,10,12,5,15,0.00,5,,76
2012-11-4,50,41,32,39,34,28,89,75,61,30.29,30.23,30.18,10,10,6,10,3,12,0.03,7,Rain,152
2012-11-5,49,44,38,39,34,30,93,73,53,30.20,30.16,30.12,10,8,5,14,5,17,0.03,7,Rain,109
2012-11-6,47,43,39,43,39,33,96,84,71,30.10,29.94,29.86,10,8,2,15,9,22,0.19,8,Rain,254
2012-11-7,45,41,37,38,35,32,86,74,62,30.18,30.09,29.93,10,10,4,16,6,21,0.01,8,,356
2012-11-8,54,43,31,39,36,30,96,75,54,30.19,30.11,30.03,10,9,5,18,6,23,0.00,0,,150
2012-11-9,58,49,39,48,43,36,92,77,62,30.02,29.95,29.89,10,10,9,13,7,17,0.00,5,,110
2012-11-10,72,63,54,57,52,45,86,66,45,29.88,29.78,29.70,10,10,10,26,14,35,0.01,2,Rain,160
2012-11-11,65,46,27,57,46,18,100,78,56,30.10,29.81,29.67,10,6,2,23,13,32,1.36,7,Rain-Thunderstorm,275
2012-11-12,35,29,22,21,19,16,81,67,52,30.43,30.24,30.11,10,10,10,25,12,31,0.00,2,,267
2012-11-13,44,32,19,28,22,16,91,66,41,30.53,30.47,30.43,10,10,10,12,4,14,0.00,1,,161
2012-11-14,55,43,31,32,30,27,82,62,41,30.45,30.39,30.33,10,10,10,14,7,17,0.00,2,,148
2012-11-15,57,43,29,33,30,26,85,62,38,30.40,30.34,30.29,10,10,10,14,4,18,0.00,0,,175
2012-11-16,56,42,28,38,33,28,96,73,50,30.48,30.45,30.40,10,9,5,7,1,9,0.00,0,,338
2012-11-17,57,43,29,36,30,27,100,72,43,30.50,30.44,30.38,10,6,0,16,5,20,0.00,0,Fog,147
2012-11-18,60,46,31,35,33,30,89,63,36,30.38,30.31,30.25,10,8,4,15,6,20,0.00,0,,139
2012-11-19,56,47,37,46,40,34,100,80,59,30.23,30.13,30.08,10,7,0,17,6,22,0.00,5,Fog,151
2012-11-20,48,42,35,45,43,36,100,97,93,30.22,30.16,30.07,3,1,0,8,2,9,0.00,8,Fog,300
2012-11-21,65,50,34,47,41,34,100,72,44,30.23,30.14,30.01,10,5,0,16,7,22,0.00,1,Fog-Snow,164
2012-11-22,62,50,38,48,39,31,77,64,51,30.06,29.90,29.75,10,10,10,31,14,40,0.00,1,,219
2012-11-23,40,31,22,29,16,13,70,59,47,30.37,30.27,30.06,10,10,10,33,18,45,0.00,1,,303
2012-11-24,31,24,16,21,17,12,88,76,63,30.36,30.21,29.93,10,10,10,12,7,17,0.00,1,,217
2012-11-25,40,33,26,25,23,21,81,68,54,30.15,29.99,29.89,10,10,10,16,7,20,0.00,3,,320
2012-11-26,34,26,17,23,15,9,69,56,43,30.47,30.35,30.18,10,10,10,20,10,26,0.00,3,,333
2012-11-27,34,23,12,17,12,7,84,63,41,30.48,30.38,30.29,10,10,10,14,5,18,0.00,2,,219
2012-11-28,46,33,19,26,20,15,84,61,37,30.45,30.34,30.25,10,10,10,9,3,12,0.00,0,,207
2012-11-29,52,37,22,34,28,20,92,71,50,30.24,30.12,30.02,10,9,6,15,3,18,0.00,0,,166
2012-11-30,53,40,26,37,32,24,92,73,54,30.13,30.08,30.02,10,8,5,12,4,14,0.00,0,,57